sensor_id;sensor_type;location;lat;lon;timestamp;P1;durP1;ratioP1;P2;durP2;ratioP2
14080;SDS011;7116;52.152;5.392;2022-08-20T00:01:40;10.10;;;7.65;;
14080;SDS011;7116;52.152;5.392;2022-08-20T00:04:06;8.67;;;6.03;;
14080;SDS011;7116;52.152;5.392;2022-08-20T00:06:31;9.23;;;6.70;;
14080;SDS011;7116;52.152;5.392;2022-08-20T00:08:57;12.95;;;7.53;;
14080;SDS011;7116;52.152;5.392;2022-08-20T00:11:24;12.33;;;7.50;;
14080;SDS011;7116;52.152;5.392;2022-08-20T00:13:51;9.15;;;6.80;;
14080;SDS011;7116;52.152;5.392;2022-08-20T00:16:17;11.57;;;6.77;;
14080;SDS011;7116;52.152;5.392;2022-08-20T00:18:43;11.95;;;7.40;;
14080;SDS011;7116;52.152;5.392;2022-08-20T00:21:09;10.23;;;6.73;;
14080;SDS011;7116;52.152;5.392;2022-08-20T00:23:35;10.77;;;6.43;;
14080;SDS011;7116;52.152;5.392;2022-08-20T00:26:01;10.07;;;6.55;;
14080;SDS011;7116;52.152;5.392;2022-08-20T00:28:26;10.33;;;6.67;;
14080;SDS011;7116;52.152;5.392;2022-08-20T00:30:51;11.30;;;6.57;;
14080;SDS011;7116;52.152;5.392;2022-08-20T00:33:17;9.60;;;6.13;;
14080;SDS011;7116;52.152;5.392;2022-08-20T00:35:44;8.50;;;6.20;;
14080;SDS011;7116;52.152;5.392;2022-08-20T00:38:10;11.27;;;6.60;;
14080;SDS011;7116;52.152;5.392;2022-08-20T00:40:39;9.00;;;6.00;;
14080;SDS011;7116;52.152;5.392;2022-08-20T00:43:06;9.40;;;6.67;;
14080;SDS011;7116;52.152;5.392;2022-08-20T00:45:33;9.90;;;6.15;;
14080;SDS011;7116;52.152;5.392;2022-08-20T00:47:58;9.95;;;6.22;;
14080;SDS011;7116;52.152;5.392;2022-08-20T00:50:31;8.17;;;5.93;;
14080;SDS011;7116;52.152;5.392;2022-08-20T00:52:58;8.30;;;5.32;;
14080;SDS011;7116;52.152;5.392;2022-08-20T00:55:23;8.93;;;6.60;;
14080;SDS011;7116;52.152;5.392;2022-08-20T00:57:50;7.50;;;5.47;;
14080;SDS011;7116;52.152;5.392;2022-08-20T01:00:19;11.68;;;6.32;;
14080;SDS011;7116;52.152;5.392;2022-08-20T01:02:45;8.57;;;6.55;;
14080;SDS011;7116;52.152;5.392;2022-08-20T01:05:11;7.73;;;5.47;;
14080;SDS011;7116;52.152;5.392;2022-08-20T01:07:36;9.43;;;6.13;;
14080;SDS011;7116;52.152;5.392;2022-08-20T01:12:30;8.32;;;5.40;;
14080;SDS011;7116;52.152;5.392;2022-08-20T01:14:57;8.60;;;5.97;;
14080;SDS011;7116;52.152;5.392;2022-08-20T01:17:23;9.15;;;6.00;;
14080;SDS011;7116;52.152;5.392;2022-08-20T01:19:50;10.18;;;6.30;;
14080;SDS011;7116;52.152;5.392;2022-08-20T01:22:19;12.13;;;6.57;;
14080;SDS011;7116;52.152;5.392;2022-08-20T01:25:07;8.23;;;4.60;;
14080;SDS011;7116;52.152;5.392;2022-08-20T01:27:33;6.40;;;4.50;;
14080;SDS011;7116;52.152;5.392;2022-08-20T01:29:59;10.63;;;4.43;;
14080;SDS011;7116;52.152;5.392;2022-08-20T01:32:25;12.37;;;5.37;;
14080;SDS011;7116;52.152;5.392;2022-08-20T01:34:50;8.53;;;5.07;;
14080;SDS011;7116;52.152;5.392;2022-08-20T01:37:15;11.53;;;5.00;;
14080;SDS011;7116;52.152;5.392;2022-08-20T01:39:40;10.00;;;5.00;;
14080;SDS011;7116;52.152;5.392;2022-08-20T01:44:41;8.70;;;5.47;;
14080;SDS011;7116;52.152;5.392;2022-08-20T01:47:09;9.77;;;5.70;;
14080;SDS011;7116;52.152;5.392;2022-08-20T01:49:35;9.35;;;5.85;;
14080;SDS011;7116;52.152;5.392;2022-08-20T01:52:04;8.90;;;5.70;;
14080;SDS011;7116;52.152;5.392;2022-08-20T01:54:31;7.80;;;5.03;;
14080;SDS011;7116;52.152;5.392;2022-08-20T01:57:01;11.50;;;5.88;;
14080;SDS011;7116;52.152;5.392;2022-08-20T01:59:28;11.10;;;5.20;;
14080;SDS011;7116;52.152;5.392;2022-08-20T02:01:53;6.68;;;4.70;;
14080;SDS011;7116;52.152;5.392;2022-08-20T02:04:19;7.90;;;5.00;;
14080;SDS011;7116;52.152;5.392;2022-08-20T02:06:48;7.13;;;4.10;;
14080;SDS011;7116;52.152;5.392;2022-08-20T02:09:14;7.32;;;4.13;;
14080;SDS011;7116;52.152;5.392;2022-08-20T02:11:39;9.57;;;3.67;;
14080;SDS011;7116;52.152;5.392;2022-08-20T02:14:07;8.47;;;4.00;;
14080;SDS011;7116;52.152;5.392;2022-08-20T02:16:33;6.47;;;4.15;;
14080;SDS011;7116;52.152;5.392;2022-08-20T02:19:03;6.33;;;3.37;;
14080;SDS011;7116;52.152;5.392;2022-08-20T02:21:30;8.43;;;4.57;;
14080;SDS011;7116;52.152;5.392;2022-08-20T02:23:56;7.50;;;4.57;;
14080;SDS011;7116;52.152;5.392;2022-08-20T02:26:21;7.17;;;4.00;;
14080;SDS011;7116;52.152;5.392;2022-08-20T02:28:50;10.97;;;4.50;;
14080;SDS011;7116;52.152;5.392;2022-08-20T02:31:17;6.55;;;4.30;;
14080;SDS011;7116;52.152;5.392;2022-08-20T02:33:42;9.75;;;4.40;;
14080;SDS011;7116;52.152;5.392;2022-08-20T02:36:08;8.87;;;5.33;;
14080;SDS011;7116;52.152;5.392;2022-08-20T02:38:34;8.23;;;4.20;;
14080;SDS011;7116;52.152;5.392;2022-08-20T02:41:02;6.90;;;4.38;;
14080;SDS011;7116;52.152;5.392;2022-08-20T02:43:28;5.90;;;4.07;;
14080;SDS011;7116;52.152;5.392;2022-08-20T02:45:55;12.57;;;4.20;;
14080;SDS011;7116;52.152;5.392;2022-08-20T02:48:21;11.53;;;5.40;;
14080;SDS011;7116;52.152;5.392;2022-08-20T02:50:51;7.55;;;4.50;;
14080;SDS011;7116;52.152;5.392;2022-08-20T02:53:16;7.53;;;4.18;;
14080;SDS011;7116;52.152;5.392;2022-08-20T02:55:42;9.00;;;4.30;;
14080;SDS011;7116;52.152;5.392;2022-08-20T02:58:07;11.93;;;4.20;;
14080;SDS011;7116;52.152;5.392;2022-08-20T03:00:33;6.97;;;4.73;;
14080;SDS011;7116;52.152;5.392;2022-08-20T03:02:58;7.60;;;3.58;;
14080;SDS011;7116;52.152;5.392;2022-08-20T03:05:24;8.97;;;4.40;;
14080;SDS011;7116;52.152;5.392;2022-08-20T03:07:50;9.57;;;4.73;;
14080;SDS011;7116;52.152;5.392;2022-08-20T03:10:21;7.28;;;4.35;;
14080;SDS011;7116;52.152;5.392;2022-08-20T03:12:47;8.73;;;4.43;;
14080;SDS011;7116;52.152;5.392;2022-08-20T03:15:12;10.80;;;4.07;;
14080;SDS011;7116;52.152;5.392;2022-08-20T03:17:37;7.73;;;4.13;;
14080;SDS011;7116;52.152;5.392;2022-08-20T03:20:06;7.80;;;4.73;;
14080;SDS011;7116;52.152;5.392;2022-08-20T03:22:31;8.43;;;4.57;;
14080;SDS011;7116;52.152;5.392;2022-08-20T03:24:57;8.80;;;3.73;;
14080;SDS011;7116;52.152;5.392;2022-08-20T03:27:22;8.77;;;4.30;;
14080;SDS011;7116;52.152;5.392;2022-08-20T03:29:47;10.53;;;4.10;;
14080;SDS011;7116;52.152;5.392;2022-08-20T03:32:12;8.77;;;4.33;;
14080;SDS011;7116;52.152;5.392;2022-08-20T03:34:38;9.43;;;4.00;;
14080;SDS011;7116;52.152;5.392;2022-08-20T03:37:03;8.43;;;3.43;;
14080;SDS011;7116;52.152;5.392;2022-08-20T03:39:28;5.97;;;3.53;;
14080;SDS011;7116;52.152;5.392;2022-08-20T03:41:53;7.03;;;4.33;;
14080;SDS011;7116;52.152;5.392;2022-08-20T03:44:20;7.43;;;3.72;;
14080;SDS011;7116;52.152;5.392;2022-08-20T03:46:45;12.50;;;4.53;;
14080;SDS011;7116;52.152;5.392;2022-08-20T03:49:10;7.67;;;4.07;;
14080;SDS011;7116;52.152;5.392;2022-08-20T03:51:35;8.20;;;3.73;;
14080;SDS011;7116;52.152;5.392;2022-08-20T03:54:00;7.37;;;3.93;;
14080;SDS011;7116;52.152;5.392;2022-08-20T03:56:25;6.60;;;4.27;;
14080;SDS011;7116;52.152;5.392;2022-08-20T03:58:51;10.77;;;3.83;;
14080;SDS011;7116;52.152;5.392;2022-08-20T04:01:16;9.15;;;3.60;;
14080;SDS011;7116;52.152;5.392;2022-08-20T04:03:42;7.80;;;3.83;;
14080;SDS011;7116;52.152;5.392;2022-08-20T04:06:07;5.90;;;3.70;;
14080;SDS011;7116;52.152;5.392;2022-08-20T04:08:32;5.30;;;3.30;;
14080;SDS011;7116;52.152;5.392;2022-08-20T04:10:57;6.80;;;4.43;;
14080;SDS011;7116;52.152;5.392;2022-08-20T04:13:23;5.90;;;3.90;;
14080;SDS011;7116;52.152;5.392;2022-08-20T04:15:49;9.47;;;4.07;;
14080;SDS011;7116;52.152;5.392;2022-08-20T04:18:15;8.27;;;3.90;;
14080;SDS011;7116;52.152;5.392;2022-08-20T04:20:44;12.52;;;4.30;;
14080;SDS011;7116;52.152;5.392;2022-08-20T04:23:09;7.22;;;3.60;;
14080;SDS011;7116;52.152;5.392;2022-08-20T04:25:35;5.77;;;3.67;;
14080;SDS011;7116;52.152;5.392;2022-08-20T04:28:01;8.30;;;4.20;;
14080;SDS011;7116;52.152;5.392;2022-08-20T04:30:27;7.20;;;4.50;;
14080;SDS011;7116;52.152;5.392;2022-08-20T04:32:52;7.03;;;4.20;;
14080;SDS011;7116;52.152;5.392;2022-08-20T04:35:19;8.05;;;4.15;;
14080;SDS011;7116;52.152;5.392;2022-08-20T04:37:45;6.80;;;4.17;;
14080;SDS011;7116;52.152;5.392;2022-08-20T04:40:12;13.02;;;4.88;;
14080;SDS011;7116;52.152;5.392;2022-08-20T04:42:57;8.15;;;3.83;;
14080;SDS011;7116;52.152;5.392;2022-08-20T04:45:23;9.63;;;4.17;;
14080;SDS011;7116;52.152;5.392;2022-08-20T04:47:48;7.10;;;3.70;;
14080;SDS011;7116;52.152;5.392;2022-08-20T04:50:14;6.87;;;4.43;;
14080;SDS011;7116;52.152;5.392;2022-08-20T04:52:39;9.20;;;4.35;;
14080;SDS011;7116;52.152;5.392;2022-08-20T04:55:05;10.47;;;4.60;;
14080;SDS011;7116;52.152;5.392;2022-08-20T04:57:31;11.30;;;4.47;;
14080;SDS011;7116;52.152;5.392;2022-08-20T04:59:56;8.23;;;4.67;;
14080;SDS011;7116;52.152;5.392;2022-08-20T05:02:22;12.77;;;4.17;;
14080;SDS011;7116;52.152;5.392;2022-08-20T05:04:47;8.40;;;4.00;;
14080;SDS011;7116;52.152;5.392;2022-08-20T05:07:13;8.90;;;4.20;;
14080;SDS011;7116;52.152;5.392;2022-08-20T05:09:39;6.00;;;4.18;;
14080;SDS011;7116;52.152;5.392;2022-08-20T05:12:04;6.50;;;4.07;;
14080;SDS011;7116;52.152;5.392;2022-08-20T05:14:30;6.47;;;4.00;;
14080;SDS011;7116;52.152;5.392;2022-08-20T05:16:55;8.53;;;4.00;;
14080;SDS011;7116;52.152;5.392;2022-08-20T05:19:22;10.18;;;3.97;;
14080;SDS011;7116;52.152;5.392;2022-08-20T05:21:47;7.85;;;3.88;;
14080;SDS011;7116;52.152;5.392;2022-08-20T05:24:12;7.50;;;4.30;;
14080;SDS011;7116;52.152;5.392;2022-08-20T05:26:38;8.00;;;4.20;;
14080;SDS011;7116;52.152;5.392;2022-08-20T05:29:03;6.07;;;4.13;;
14080;SDS011;7116;52.152;5.392;2022-08-20T05:31:29;11.25;;;4.03;;
14080;SDS011;7116;52.152;5.392;2022-08-20T05:33:55;9.97;;;4.57;;
14080;SDS011;7116;52.152;5.392;2022-08-20T05:36:21;9.55;;;4.35;;
14080;SDS011;7116;52.152;5.392;2022-08-20T05:38:46;9.10;;;4.30;;
14080;SDS011;7116;52.152;5.392;2022-08-20T05:41:12;10.13;;;4.13;;
14080;SDS011;7116;52.152;5.392;2022-08-20T05:43:37;8.20;;;4.10;;
14080;SDS011;7116;52.152;5.392;2022-08-20T05:46:02;4.90;;;3.03;;
14080;SDS011;7116;52.152;5.392;2022-08-20T05:48:28;7.77;;;4.03;;
14080;SDS011;7116;52.152;5.392;2022-08-20T05:50:53;9.50;;;4.50;;
14080;SDS011;7116;52.152;5.392;2022-08-20T05:53:19;5.47;;;3.60;;
14080;SDS011;7116;52.152;5.392;2022-08-20T05:55:44;6.75;;;3.45;;
14080;SDS011;7116;52.152;5.392;2022-08-20T05:58:14;7.33;;;3.33;;
14080;SDS011;7116;52.152;5.392;2022-08-20T06:00:39;7.72;;;3.55;;
14080;SDS011;7116;52.152;5.392;2022-08-20T06:03:04;7.15;;;3.40;;
14080;SDS011;7116;52.152;5.392;2022-08-20T06:05:48;8.17;;;3.03;;
14080;SDS011;7116;52.152;5.392;2022-08-20T06:08:14;6.47;;;3.35;;
14080;SDS011;7116;52.152;5.392;2022-08-20T06:10:40;6.38;;;2.83;;
14080;SDS011;7116;52.152;5.392;2022-08-20T06:13:06;5.10;;;2.60;;
14080;SDS011;7116;52.152;5.392;2022-08-20T06:15:31;7.93;;;3.03;;
14080;SDS011;7116;52.152;5.392;2022-08-20T06:17:57;9.83;;;3.30;;
14080;SDS011;7116;52.152;5.392;2022-08-20T06:20:22;8.23;;;3.13;;
14080;SDS011;7116;52.152;5.392;2022-08-20T06:22:47;5.13;;;2.50;;
14080;SDS011;7116;52.152;5.392;2022-08-20T06:25:12;5.10;;;2.63;;
14080;SDS011;7116;52.152;5.392;2022-08-20T06:27:38;26.83;;;4.70;;
14080;SDS011;7116;52.152;5.392;2022-08-20T06:30:04;21.67;;;3.77;;
14080;SDS011;7116;52.152;5.392;2022-08-20T06:32:29;11.95;;;3.30;;
14080;SDS011;7116;52.152;5.392;2022-08-20T06:34:55;14.10;;;3.33;;
14080;SDS011;7116;52.152;5.392;2022-08-20T06:37:21;8.60;;;2.90;;
14080;SDS011;7116;52.152;5.392;2022-08-20T06:39:47;9.52;;;2.80;;
14080;SDS011;7116;52.152;5.392;2022-08-20T06:42:12;9.70;;;2.73;;
14080;SDS011;7116;52.152;5.392;2022-08-20T06:44:37;4.90;;;2.00;;
14080;SDS011;7116;52.152;5.392;2022-08-20T06:47:03;8.00;;;2.60;;
14080;SDS011;7116;52.152;5.392;2022-08-20T06:49:29;9.68;;;2.53;;
14080;SDS011;7116;52.152;5.392;2022-08-20T06:51:54;6.27;;;2.40;;
14080;SDS011;7116;52.152;5.392;2022-08-20T06:54:19;6.40;;;2.43;;
14080;SDS011;7116;52.152;5.392;2022-08-20T06:56:44;7.10;;;2.13;;
14080;SDS011;7116;52.152;5.392;2022-08-20T06:59:10;6.23;;;2.13;;
14080;SDS011;7116;52.152;5.392;2022-08-20T07:01:35;8.27;;;2.70;;
14080;SDS011;7116;52.152;5.392;2022-08-20T07:04:00;7.03;;;1.93;;
14080;SDS011;7116;52.152;5.392;2022-08-20T07:06:25;10.43;;;2.30;;
14080;SDS011;7116;52.152;5.392;2022-08-20T07:08:50;8.77;;;2.27;;
14080;SDS011;7116;52.152;5.392;2022-08-20T07:11:16;4.50;;;1.67;;
14080;SDS011;7116;52.152;5.392;2022-08-20T07:13:41;7.17;;;2.40;;
14080;SDS011;7116;52.152;5.392;2022-08-20T07:16:06;6.70;;;2.07;;
14080;SDS011;7116;52.152;5.392;2022-08-20T07:18:31;6.50;;;2.30;;
14080;SDS011;7116;52.152;5.392;2022-08-20T07:20:57;5.17;;;2.33;;
14080;SDS011;7116;52.152;5.392;2022-08-20T07:23:22;8.50;;;2.80;;
14080;SDS011;7116;52.152;5.392;2022-08-20T07:25:48;7.93;;;2.77;;
14080;SDS011;7116;52.152;5.392;2022-08-20T07:28:15;7.37;;;2.07;;
14080;SDS011;7116;52.152;5.392;2022-08-20T07:30:41;7.15;;;2.00;;
14080;SDS011;7116;52.152;5.392;2022-08-20T07:33:25;8.13;;;2.08;;
14080;SDS011;7116;52.152;5.392;2022-08-20T07:35:50;6.37;;;1.97;;
14080;SDS011;7116;52.152;5.392;2022-08-20T07:38:16;6.83;;;2.30;;
14080;SDS011;7116;52.152;5.392;2022-08-20T07:40:51;8.02;;;2.35;;
14080;SDS011;7116;52.152;5.392;2022-08-20T07:43:16;8.57;;;2.45;;
14080;SDS011;7116;52.152;5.392;2022-08-20T07:45:41;9.63;;;2.60;;
14080;SDS011;7116;52.152;5.392;2022-08-20T07:48:09;11.60;;;2.63;;
14080;SDS011;7116;52.152;5.392;2022-08-20T07:50:35;6.50;;;2.28;;
14080;SDS011;7116;52.152;5.392;2022-08-20T07:53:01;7.67;;;2.83;;
14080;SDS011;7116;52.152;5.392;2022-08-20T07:55:26;8.57;;;2.30;;
14080;SDS011;7116;52.152;5.392;2022-08-20T07:57:51;6.32;;;1.98;;
14080;SDS011;7116;52.152;5.392;2022-08-20T08:00:18;9.00;;;2.33;;
14080;SDS011;7116;52.152;5.392;2022-08-20T08:02:43;7.10;;;2.20;;
14080;SDS011;7116;52.152;5.392;2022-08-20T08:05:08;9.33;;;2.60;;
14080;SDS011;7116;52.152;5.392;2022-08-20T08:07:34;4.78;;;1.70;;
14080;SDS011;7116;52.152;5.392;2022-08-20T08:10:00;6.90;;;2.17;;
14080;SDS011;7116;52.152;5.392;2022-08-20T08:12:27;6.27;;;2.20;;
14080;SDS011;7116;52.152;5.392;2022-08-20T08:14:56;5.28;;;2.17;;
14080;SDS011;7116;52.152;5.392;2022-08-20T08:17:22;10.57;;;1.73;;
14080;SDS011;7116;52.152;5.392;2022-08-20T08:19:48;8.90;;;2.73;;
14080;SDS011;7116;52.152;5.392;2022-08-20T08:22:14;7.35;;;2.17;;
14080;SDS011;7116;52.152;5.392;2022-08-20T08:24:40;8.05;;;2.17;;
14080;SDS011;7116;52.152;5.392;2022-08-20T08:27:07;6.72;;;2.05;;
14080;SDS011;7116;52.152;5.392;2022-08-20T08:29:33;11.20;;;2.17;;
14080;SDS011;7116;52.152;5.392;2022-08-20T08:31:59;4.93;;;1.80;;
14080;SDS011;7116;52.152;5.392;2022-08-20T08:34:25;8.63;;;2.50;;
14080;SDS011;7116;52.152;5.392;2022-08-20T08:36:50;6.93;;;2.03;;
14080;SDS011;7116;52.152;5.392;2022-08-20T08:39:16;7.37;;;2.00;;
14080;SDS011;7116;52.152;5.392;2022-08-20T08:41:43;6.53;;;2.00;;
14080;SDS011;7116;52.152;5.392;2022-08-20T08:44:14;6.30;;;2.00;;
14080;SDS011;7116;52.152;5.392;2022-08-20T08:46:45;5.88;;;2.25;;
14080;SDS011;7116;52.152;5.392;2022-08-20T08:49:17;6.75;;;1.98;;
14080;SDS011;7116;52.152;5.392;2022-08-20T08:51:45;8.37;;;2.20;;
14080;SDS011;7116;52.152;5.392;2022-08-20T08:54:16;8.00;;;2.38;;
14080;SDS011;7116;52.152;5.392;2022-08-20T08:56:42;6.30;;;1.98;;
14080;SDS011;7116;52.152;5.392;2022-08-20T08:59:07;8.77;;;2.23;;
14080;SDS011;7116;52.152;5.392;2022-08-20T09:01:34;4.57;;;1.77;;
14080;SDS011;7116;52.152;5.392;2022-08-20T09:04:00;5.68;;;2.00;;
14080;SDS011;7116;52.152;5.392;2022-08-20T09:06:26;12.48;;;2.33;;
14080;SDS011;7116;52.152;5.392;2022-08-20T09:08:53;6.33;;;1.87;;
14080;SDS011;7116;52.152;5.392;2022-08-20T09:11:20;8.83;;;2.27;;
14080;SDS011;7116;52.152;5.392;2022-08-20T09:13:46;7.07;;;1.85;;
14080;SDS011;7116;52.152;5.392;2022-08-20T09:16:12;7.47;;;1.90;;
14080;SDS011;7116;52.152;5.392;2022-08-20T09:18:38;11.93;;;1.73;;
14080;SDS011;7116;52.152;5.392;2022-08-20T09:21:04;8.05;;;2.22;;
14080;SDS011;7116;52.152;5.392;2022-08-20T09:23:29;6.57;;;2.15;;
14080;SDS011;7116;52.152;5.392;2022-08-20T09:25:54;5.00;;;1.83;;
14080;SDS011;7116;52.152;5.392;2022-08-20T09:28:19;5.37;;;1.83;;
14080;SDS011;7116;52.152;5.392;2022-08-20T09:30:45;13.60;;;2.07;;
14080;SDS011;7116;52.152;5.392;2022-08-20T09:33:10;6.10;;;2.33;;
14080;SDS011;7116;52.152;5.392;2022-08-20T09:35:35;4.23;;;1.53;;
14080;SDS011;7116;52.152;5.392;2022-08-20T09:38:02;5.22;;;2.08;;
14080;SDS011;7116;52.152;5.392;2022-08-20T09:40:27;5.73;;;2.00;;
14080;SDS011;7116;52.152;5.392;2022-08-20T09:42:52;6.07;;;2.07;;
14080;SDS011;7116;52.152;5.392;2022-08-20T09:45:17;6.07;;;1.90;;
14080;SDS011;7116;52.152;5.392;2022-08-20T09:47:43;6.63;;;2.05;;
14080;SDS011;7116;52.152;5.392;2022-08-20T09:50:08;7.63;;;1.70;;
14080;SDS011;7116;52.152;5.392;2022-08-20T09:52:35;6.43;;;1.73;;
14080;SDS011;7116;52.152;5.392;2022-08-20T09:55:04;4.57;;;2.00;;
14080;SDS011;7116;52.152;5.392;2022-08-20T09:57:31;5.60;;;1.90;;
14080;SDS011;7116;52.152;5.392;2022-08-20T09:59:58;6.30;;;1.87;;
14080;SDS011;7116;52.152;5.392;2022-08-20T10:02:24;7.93;;;2.05;;
14080;SDS011;7116;52.152;5.392;2022-08-20T10:04:49;4.63;;;1.52;;
14080;SDS011;7116;52.152;5.392;2022-08-20T10:07:14;7.97;;;2.07;;
14080;SDS011;7116;52.152;5.392;2022-08-20T10:09:40;4.57;;;1.40;;
14080;SDS011;7116;52.152;5.392;2022-08-20T10:12:05;5.60;;;1.80;;
14080;SDS011;7116;52.152;5.392;2022-08-20T10:14:30;5.80;;;1.53;;
14080;SDS011;7116;52.152;5.392;2022-08-20T10:16:59;7.60;;;2.10;;
14080;SDS011;7116;52.152;5.392;2022-08-20T10:19:24;6.05;;;1.80;;
14080;SDS011;7116;52.152;5.392;2022-08-20T10:21:50;6.53;;;1.40;;
14080;SDS011;7116;52.152;5.392;2022-08-20T10:24:16;7.22;;;2.28;;
14080;SDS011;7116;52.152;5.392;2022-08-20T10:26:42;5.23;;;2.07;;
14080;SDS011;7116;52.152;5.392;2022-08-20T10:29:07;6.60;;;2.10;;
14080;SDS011;7116;52.152;5.392;2022-08-20T10:31:32;6.50;;;2.13;;
14080;SDS011;7116;52.152;5.392;2022-08-20T10:33:57;8.07;;;2.10;;
14080;SDS011;7116;52.152;5.392;2022-08-20T10:36:23;7.30;;;2.33;;
14080;SDS011;7116;52.152;5.392;2022-08-20T10:38:48;7.20;;;2.43;;
14080;SDS011;7116;52.152;5.392;2022-08-20T10:41:13;7.27;;;2.10;;
14080;SDS011;7116;52.152;5.392;2022-08-20T10:43:38;8.90;;;2.13;;
14080;SDS011;7116;52.152;5.392;2022-08-20T10:46:03;10.20;;;2.50;;
14080;SDS011;7116;52.152;5.392;2022-08-20T10:48:29;6.85;;;2.03;;
14080;SDS011;7116;52.152;5.392;2022-08-20T10:50:54;6.07;;;1.93;;
14080;SDS011;7116;52.152;5.392;2022-08-20T10:53:19;8.87;;;2.40;;
14080;SDS011;7116;52.152;5.392;2022-08-20T10:55:44;7.17;;;2.40;;
14080;SDS011;7116;52.152;5.392;2022-08-20T10:58:10;6.43;;;2.07;;
14080;SDS011;7116;52.152;5.392;2022-08-20T11:00:37;6.60;;;2.25;;
14080;SDS011;7116;52.152;5.392;2022-08-20T11:03:02;5.23;;;1.80;;
14080;SDS011;7116;52.152;5.392;2022-08-20T11:05:28;8.30;;;2.03;;
14080;SDS011;7116;52.152;5.392;2022-08-20T11:07:53;5.13;;;1.80;;
14080;SDS011;7116;52.152;5.392;2022-08-20T11:10:23;7.75;;;2.47;;
14080;SDS011;7116;52.152;5.392;2022-08-20T11:12:48;7.57;;;2.00;;
14080;SDS011;7116;52.152;5.392;2022-08-20T11:15:14;6.80;;;2.43;;
14080;SDS011;7116;52.152;5.392;2022-08-20T11:17:40;5.50;;;2.20;;
14080;SDS011;7116;52.152;5.392;2022-08-20T11:20:06;8.20;;;2.30;;
14080;SDS011;7116;52.152;5.392;2022-08-20T11:22:32;7.18;;;2.35;;
14080;SDS011;7116;52.152;5.392;2022-08-20T11:24:57;5.87;;;2.00;;
14080;SDS011;7116;52.152;5.392;2022-08-20T11:27:26;9.20;;;2.33;;
14080;SDS011;7116;52.152;5.392;2022-08-20T11:29:52;8.10;;;2.65;;
14080;SDS011;7116;52.152;5.392;2022-08-20T11:32:18;7.00;;;2.25;;
14080;SDS011;7116;52.152;5.392;2022-08-20T11:34:43;6.17;;;2.10;;
14080;SDS011;7116;52.152;5.392;2022-08-20T11:37:08;6.10;;;2.40;;
14080;SDS011;7116;52.152;5.392;2022-08-20T11:39:34;6.90;;;2.57;;
14080;SDS011;7116;52.152;5.392;2022-08-20T11:41:59;6.13;;;2.23;;
14080;SDS011;7116;52.152;5.392;2022-08-20T11:44:25;5.97;;;1.67;;
14080;SDS011;7116;52.152;5.392;2022-08-20T11:46:50;6.27;;;1.83;;
14080;SDS011;7116;52.152;5.392;2022-08-20T11:49:16;8.90;;;2.30;;
14080;SDS011;7116;52.152;5.392;2022-08-20T11:51:41;6.40;;;2.13;;
14080;SDS011;7116;52.152;5.392;2022-08-20T11:54:06;7.13;;;2.43;;
14080;SDS011;7116;52.152;5.392;2022-08-20T11:56:31;6.17;;;2.37;;
14080;SDS011;7116;52.152;5.392;2022-08-20T11:58:56;7.27;;;2.10;;
14080;SDS011;7116;52.152;5.392;2022-08-20T12:01:22;10.60;;;2.47;;
14080;SDS011;7116;52.152;5.392;2022-08-20T12:03:47;7.37;;;2.07;;
14080;SDS011;7116;52.152;5.392;2022-08-20T12:06:12;6.87;;;2.53;;
14080;SDS011;7116;52.152;5.392;2022-08-20T12:08:37;5.80;;;2.13;;
14080;SDS011;7116;52.152;5.392;2022-08-20T12:11:03;7.53;;;2.40;;
14080;SDS011;7116;52.152;5.392;2022-08-20T12:13:30;6.97;;;2.23;;
14080;SDS011;7116;52.152;5.392;2022-08-20T12:15:56;9.27;;;2.10;;
14080;SDS011;7116;52.152;5.392;2022-08-20T12:18:21;5.77;;;2.00;;
14080;SDS011;7116;52.152;5.392;2022-08-20T12:20:46;5.03;;;1.97;;
14080;SDS011;7116;52.152;5.392;2022-08-20T12:23:11;6.13;;;2.00;;
14080;SDS011;7116;52.152;5.392;2022-08-20T12:25:36;6.83;;;2.30;;
14080;SDS011;7116;52.152;5.392;2022-08-20T12:28:02;5.37;;;2.27;;
14080;SDS011;7116;52.152;5.392;2022-08-20T12:30:29;10.35;;;2.30;;
14080;SDS011;7116;52.152;5.392;2022-08-20T12:32:54;8.23;;;2.60;;
14080;SDS011;7116;52.152;5.392;2022-08-20T12:35:19;6.30;;;2.00;;
14080;SDS011;7116;52.152;5.392;2022-08-20T12:37:45;8.93;;;2.33;;
14080;SDS011;7116;52.152;5.392;2022-08-20T12:40:12;5.90;;;1.90;;
14080;SDS011;7116;52.152;5.392;2022-08-20T12:42:38;5.30;;;2.10;;
14080;SDS011;7116;52.152;5.392;2022-08-20T12:45:03;6.53;;;2.57;;
14080;SDS011;7116;52.152;5.392;2022-08-20T12:47:36;7.07;;;2.27;;
14080;SDS011;7116;52.152;5.392;2022-08-20T12:50:06;7.10;;;2.00;;
14080;SDS011;7116;52.152;5.392;2022-08-20T12:52:32;7.35;;;2.50;;
14080;SDS011;7116;52.152;5.392;2022-08-20T12:54:57;6.30;;;2.50;;
14080;SDS011;7116;52.152;5.392;2022-08-20T12:57:27;9.75;;;2.65;;
14080;SDS011;7116;52.152;5.392;2022-08-20T12:59:57;7.53;;;2.20;;
14080;SDS011;7116;52.152;5.392;2022-08-20T13:02:23;4.83;;;2.17;;
14080;SDS011;7116;52.152;5.392;2022-08-20T13:04:48;10.13;;;2.40;;
14080;SDS011;7116;52.152;5.392;2022-08-20T13:07:13;8.40;;;2.37;;
14080;SDS011;7116;52.152;5.392;2022-08-20T13:09:39;6.53;;;2.25;;
14080;SDS011;7116;52.152;5.392;2022-08-20T13:12:04;6.13;;;2.50;;
14080;SDS011;7116;52.152;5.392;2022-08-20T13:14:29;6.23;;;2.40;;
14080;SDS011;7116;52.152;5.392;2022-08-20T13:16:55;9.00;;;2.20;;
14080;SDS011;7116;52.152;5.392;2022-08-20T13:19:21;10.18;;;2.65;;
14080;SDS011;7116;52.152;5.392;2022-08-20T13:21:46;6.40;;;2.37;;
14080;SDS011;7116;52.152;5.392;2022-08-20T13:24:11;7.87;;;2.63;;
14080;SDS011;7116;52.152;5.392;2022-08-20T13:26:36;7.73;;;2.43;;
14080;SDS011;7116;52.152;5.392;2022-08-20T13:29:02;6.00;;;2.40;;
14080;SDS011;7116;52.152;5.392;2022-08-20T13:31:27;7.93;;;3.07;;
14080;SDS011;7116;52.152;5.392;2022-08-20T13:33:52;8.00;;;2.50;;
14080;SDS011;7116;52.152;5.392;2022-08-20T13:36:18;9.03;;;2.83;;
14080;SDS011;7116;52.152;5.392;2022-08-20T13:38:43;8.30;;;2.80;;
14080;SDS011;7116;52.152;5.392;2022-08-20T13:41:08;8.30;;;2.70;;
14080;SDS011;7116;52.152;5.392;2022-08-20T13:43:33;12.40;;;2.85;;
14080;SDS011;7116;52.152;5.392;2022-08-20T13:45:58;14.75;;;3.10;;
14080;SDS011;7116;52.152;5.392;2022-08-20T13:48:24;9.30;;;2.90;;
14080;SDS011;7116;52.152;5.392;2022-08-20T13:50:49;7.67;;;2.63;;
14080;SDS011;7116;52.152;5.392;2022-08-20T13:53:14;9.48;;;2.72;;
14080;SDS011;7116;52.152;5.392;2022-08-20T13:55:39;9.20;;;2.80;;
14080;SDS011;7116;52.152;5.392;2022-08-20T13:58:05;7.63;;;2.83;;
14080;SDS011;7116;52.152;5.392;2022-08-20T14:00:33;6.30;;;2.42;;
14080;SDS011;7116;52.152;5.392;2022-08-20T14:02:59;8.27;;;2.80;;
14080;SDS011;7116;52.152;5.392;2022-08-20T14:05:24;8.90;;;2.70;;
14080;SDS011;7116;52.152;5.392;2022-08-20T14:07:49;10.33;;;3.23;;
14080;SDS011;7116;52.152;5.392;2022-08-20T14:10:16;8.20;;;3.30;;
14080;SDS011;7116;52.152;5.392;2022-08-20T14:12:42;9.20;;;2.45;;
14080;SDS011;7116;52.152;5.392;2022-08-20T14:15:08;8.57;;;2.53;;
14080;SDS011;7116;52.152;5.392;2022-08-20T14:17:40;7.93;;;2.43;;
14080;SDS011;7116;52.152;5.392;2022-08-20T14:20:07;6.03;;;2.15;;
14080;SDS011;7116;52.152;5.392;2022-08-20T14:22:33;7.13;;;2.35;;
14080;SDS011;7116;52.152;5.392;2022-08-20T14:24:58;8.73;;;2.27;;
14080;SDS011;7116;52.152;5.392;2022-08-20T14:27:27;6.80;;;2.20;;
14080;SDS011;7116;52.152;5.392;2022-08-20T14:29:52;7.20;;;2.07;;
14080;SDS011;7116;52.152;5.392;2022-08-20T14:32:17;8.83;;;2.83;;
14080;SDS011;7116;52.152;5.392;2022-08-20T14:34:42;6.57;;;2.20;;
14080;SDS011;7116;52.152;5.392;2022-08-20T14:37:12;7.53;;;2.47;;
14080;SDS011;7116;52.152;5.392;2022-08-20T14:39:37;6.68;;;2.67;;
14080;SDS011;7116;52.152;5.392;2022-08-20T14:42:02;8.77;;;2.40;;
14080;SDS011;7116;52.152;5.392;2022-08-20T14:44:28;5.87;;;2.00;;
14080;SDS011;7116;52.152;5.392;2022-08-20T14:46:56;8.10;;;2.27;;
14080;SDS011;7116;52.152;5.392;2022-08-20T14:49:21;10.88;;;2.38;;
14080;SDS011;7116;52.152;5.392;2022-08-20T14:51:46;7.63;;;2.30;;
14080;SDS011;7116;52.152;5.392;2022-08-20T14:54:12;6.83;;;2.30;;
14080;SDS011;7116;52.152;5.392;2022-08-20T14:56:37;5.67;;;2.50;;
14080;SDS011;7116;52.152;5.392;2022-08-20T14:59:02;5.17;;;2.23;;